createdAt,value
2023-02-15T00:00:41.740Z,28.20
2023-02-15T00:01:41.809Z,33.70
2023-02-15T00:02:41.710Z,29.90
2023-02-15T00:03:41.698Z,31.00
2023-02-15T00:04:41.689Z,30.40
2023-02-15T00:05:41.691Z,32.70
2023-02-15T00:06:41.841Z,34.60
2023-02-15T00:07:41.673Z,31.40
2023-02-15T00:08:41.643Z,34.60
2023-02-15T00:09:41.642Z,27.70
2023-02-15T00:10:41.612Z,34.20
2023-02-15T00:11:41.615Z,33.30
2023-02-15T00:12:41.754Z,33.50
2023-02-15T00:13:41.565Z,37.30
2023-02-15T00:14:41.565Z,32.00
2023-02-15T00:15:41.589Z,32.90
2023-02-15T00:16:41.588Z,33.80
2023-02-15T00:17:41.535Z,30.80
2023-02-15T00:18:41.505Z,36.10
2023-02-15T00:19:41.496Z,27.80
2023-02-15T00:20:41.482Z,29.70
2023-02-15T00:21:41.646Z,30.00
2023-02-15T00:22:41.462Z,31.20
2023-02-15T00:23:41.623Z,25.90
2023-02-15T00:24:41.429Z,28.60
2023-02-15T00:25:41.418Z,31.90
2023-02-15T00:26:41.405Z,27.40
2023-02-15T00:27:41.399Z,28.00
2023-02-15T00:28:41.551Z,33.90
2023-02-15T00:29:41.364Z,28.20
2023-02-15T00:30:41.389Z,25.10
2023-02-15T00:31:41.403Z,33.30
2023-02-15T00:32:41.518Z,29.60
2023-02-15T00:33:41.311Z,35.50
2023-02-15T00:34:41.300Z,31.60
2023-02-15T00:35:41.293Z,32.40
2023-02-15T00:36:41.468Z,35.20
2023-02-15T00:37:41.264Z,28.60
2023-02-15T00:38:41.251Z,30.00
2023-02-15T00:39:41.255Z,30.20
2023-02-15T00:40:41.229Z,29.50
2023-02-15T00:41:41.215Z,30.40
2023-02-15T00:42:41.209Z,32.60
2023-02-15T00:43:41.193Z,30.50
2023-02-15T00:44:41.348Z,35.80
2023-02-15T00:45:41.192Z,31.40
2023-02-15T00:46:41.329Z,30.50
2023-02-15T00:47:41.137Z,32.30
2023-02-15T00:48:41.124Z,35.70
2023-02-15T00:49:41.113Z,34.00
2023-02-15T00:50:41.099Z,33.70
2023-02-15T00:51:41.281Z,29.80
2023-02-15T00:52:41.077Z,27.40
2023-02-15T00:53:41.087Z,30.80
2023-02-15T00:54:41.036Z,31.80
2023-02-15T00:55:41.035Z,27.20
2023-02-15T00:56:41.016Z,29.80
2023-02-15T00:57:41.009Z,30.20
2023-02-15T00:58:41.164Z,30.80
2023-02-15T00:59:40.994Z,30.20
2023-02-15T01:00:41.145Z,29.60
2023-02-15T01:01:40.965Z,31.70
2023-02-15T01:02:40.941Z,31.80
2023-02-15T01:03:41.106Z,28.70
2023-02-15T01:04:40.964Z,27.90
2023-02-15T01:05:40.904Z,29.70
2023-02-15T01:06:41.074Z,30.30
2023-02-15T01:07:40.884Z,25.60
2023-02-15T01:08:40.869Z,29.70
2023-02-15T01:09:40.864Z,27.90
2023-02-15T01:10:40.842Z,28.30
2023-02-15T01:11:41.006Z,33.60
2023-02-15T01:12:40.816Z,33.10
2023-02-15T01:13:40.838Z,33.40
2023-02-15T01:14:40.799Z,29.40
2023-02-15T01:15:43.061Z,28.70
2023-02-15T01:16:40.769Z,33.40
2023-02-15T01:17:40.755Z,28.00
2023-02-15T01:18:41.045Z,34.40
2023-02-15T01:19:40.736Z,30.40
2023-02-15T01:20:40.722Z,28.80
2023-02-15T01:21:40.713Z,30.50
2023-02-15T01:22:40.698Z,29.60
2023-02-15T01:23:40.694Z,30.30
2023-02-15T01:24:40.660Z,30.80
2023-02-15T01:25:40.652Z,35.10
2023-02-15T01:26:40.650Z,30.10
2023-02-15T01:27:40.622Z,37.60
2023-02-15T01:28:40.795Z,30.90
2023-02-15T01:29:40.615Z,26.30
2023-02-15T01:30:40.756Z,29.70
2023-02-15T01:31:40.671Z,28.70
2023-02-15T01:32:40.560Z,28.60
2023-02-15T01:33:40.564Z,29.40
2023-02-15T01:34:40.709Z,26.70
2023-02-15T01:35:40.527Z,28.30
2023-02-15T01:36:40.510Z,36.90
2023-02-15T01:37:40.500Z,33.10
2023-02-15T01:38:40.481Z,32.40
2023-02-15T01:39:40.649Z,26.60
2023-02-15T01:40:40.639Z,36.60
2023-02-15T01:41:40.452Z,32.30
2023-02-15T01:42:40.444Z,31.50
2023-02-15T01:43:40.432Z,30.70
2023-02-15T01:44:40.409Z,32.90
2023-02-15T01:45:40.579Z,31.60
2023-02-15T01:46:40.558Z,32.70
2023-02-15T01:47:40.381Z,30.50
2023-02-15T01:48:40.367Z,30.60
2023-02-15T01:49:40.340Z,34.50
2023-02-15T01:50:40.326Z,28.60
2023-02-15T01:51:40.349Z,30.60
2023-02-15T01:52:40.314Z,33.50
2023-02-15T01:53:40.296Z,36.20
2023-02-15T01:54:40.274Z,30.10
2023-02-15T01:55:40.272Z,28.80
2023-02-15T01:56:40.256Z,33.30
2023-02-15T01:57:40.258Z,30.90
2023-02-15T01:58:40.405Z,33.30
2023-02-15T01:59:40.215Z,33.80
2023-02-15T02:00:40.201Z,33.50
2023-02-15T02:01:40.355Z,34.60
2023-02-15T02:02:40.191Z,30.00
2023-02-15T02:03:40.355Z,32.80
2023-02-15T02:04:40.147Z,35.00
2023-02-15T02:05:40.138Z,33.90
2023-02-15T02:06:40.132Z,34.70
2023-02-15T02:07:40.109Z,34.00
2023-02-15T02:08:40.273Z,33.10
2023-02-15T02:09:40.088Z,33.70
2023-02-15T02:10:40.070Z,31.20
2023-02-15T02:11:40.070Z,32.10
2023-02-15T02:12:40.046Z,28.50
2023-02-15T02:13:40.046Z,31.70
2023-02-15T02:14:40.197Z,32.50
2023-02-15T02:15:40.033Z,31.70
2023-02-15T02:16:39.995Z,29.70
2023-02-15T02:17:39.987Z,30.60
2023-02-15T02:18:39.966Z,30.10
2023-02-15T02:19:40.137Z,30.00
2023-02-15T02:20:39.945Z,34.20
2023-02-15T02:21:39.938Z,27.50
2023-02-15T02:22:39.924Z,33.80
2023-02-15T02:23:39.924Z,32.70
2023-02-15T02:24:39.924Z,32.60
2023-02-15T02:25:39.884Z,37.80
2023-02-15T02:26:39.873Z,30.10
2023-02-15T02:27:39.861Z,32.50
2023-02-15T02:28:39.844Z,39.10
2023-02-15T02:29:39.863Z,32.80
2023-02-15T02:30:40.118Z,34.00
2023-02-15T02:31:39.957Z,31.50
2023-02-15T02:32:39.796Z,32.50
2023-02-15T02:33:39.784Z,29.30
2023-02-15T02:34:39.761Z,32.70
2023-02-15T02:35:39.751Z,28.30
2023-02-15T02:36:39.932Z,31.00
2023-02-15T02:37:39.750Z,31.70
2023-02-15T02:38:39.724Z,32.90
2023-02-15T02:39:39.700Z,32.80
2023-02-15T02:40:39.701Z,32.70
2023-02-15T02:41:39.691Z,35.70
2023-02-15T02:42:39.843Z,35.20
2023-02-15T02:43:39.653Z,32.40
2023-02-15T02:44:39.649Z,35.80
2023-02-15T02:45:39.630Z,30.00
2023-02-15T02:46:39.720Z,31.80
2023-02-15T02:47:39.778Z,29.00
2023-02-15T02:48:39.770Z,34.50
2023-02-15T02:49:39.600Z,33.90
2023-02-15T02:50:39.569Z,31.50
2023-02-15T02:51:39.549Z,32.80
2023-02-15T02:52:39.732Z,35.80
2023-02-15T02:53:39.548Z,33.20
2023-02-15T02:54:39.528Z,35.30
2023-02-15T02:55:39.508Z,31.00
2023-02-15T02:56:39.487Z,42.50
2023-02-15T02:57:39.477Z,36.50
2023-02-15T02:58:39.827Z,33.40
2023-02-15T02:59:39.460Z,35.70
2023-02-15T03:00:39.450Z,35.40
2023-02-15T03:01:39.486Z,38.30
2023-02-15T03:02:39.497Z,33.70
2023-02-15T03:03:39.412Z,35.20
2023-02-15T03:04:39.397Z,32.20
2023-02-15T03:05:39.383Z,33.60
2023-02-15T03:06:39.365Z,28.70
2023-02-15T03:07:39.355Z,32.50
2023-02-15T03:08:39.355Z,34.80
2023-02-15T03:09:39.335Z,32.20
2023-02-15T03:10:39.326Z,33.60
2023-02-15T03:11:39.318Z,35.60
2023-02-15T03:12:39.290Z,35.10
2023-02-15T03:13:39.287Z,37.30
2023-02-15T03:14:39.277Z,31.10
2023-02-15T03:15:39.445Z,33.50
2023-02-15T03:16:39.238Z,35.80
2023-02-15T03:17:39.230Z,33.00
2023-02-15T03:18:39.216Z,33.40
2023-02-15T03:19:39.213Z,36.10
2023-02-15T03:20:39.199Z,38.30
2023-02-15T03:21:39.204Z,33.20
2023-02-15T03:22:39.162Z,36.20
2023-02-15T03:23:39.153Z,40.70
2023-02-15T03:24:39.152Z,34.70
2023-02-15T03:25:39.131Z,34.40
2023-02-15T03:26:39.297Z,33.00
2023-02-15T03:27:39.294Z,32.80
2023-02-15T03:28:39.094Z,31.90
2023-02-15T03:29:39.086Z,36.90
2023-02-15T03:30:39.062Z,32.90
2023-02-15T03:31:39.136Z,35.70
2023-02-15T03:32:39.224Z,38.50
2023-02-15T03:33:39.040Z,29.50
2023-02-15T03:34:39.026Z,33.20
2023-02-15T03:35:39.003Z,35.90
2023-02-15T03:36:39.050Z,31.60
2023-02-15T03:37:39.011Z,32.70
2023-02-15T03:38:38.971Z,35.30
2023-02-15T03:39:38.946Z,32.10
2023-02-15T03:40:38.944Z,36.80
2023-02-15T03:41:38.924Z,35.20
2023-02-15T03:42:38.931Z,32.00
2023-02-15T03:43:38.902Z,37.90
2023-02-15T03:44:38.892Z,35.20
2023-02-15T03:45:38.868Z,33.30
2023-02-15T03:46:38.877Z,39.30
2023-02-15T03:47:38.851Z,33.80
2023-02-15T03:48:39.011Z,30.50
2023-02-15T03:49:38.992Z,29.60
2023-02-15T03:50:38.816Z,31.90
2023-02-15T03:51:38.813Z,35.20
2023-02-15T03:52:38.785Z,34.20
2023-02-15T03:53:38.782Z,35.80
2023-02-15T03:54:38.945Z,34.60
2023-02-15T03:55:38.920Z,35.30
2023-02-15T03:56:38.741Z,30.60
2023-02-15T03:57:38.720Z,29.00
2023-02-15T03:58:38.717Z,29.00
2023-02-15T03:59:38.695Z,29.40
2023-02-15T04:00:38.715Z,29.20
2023-02-15T04:01:38.670Z,32.10
2023-02-15T04:02:38.706Z,27.80
2023-02-15T04:03:38.656Z,31.10
2023-02-15T04:04:38.649Z,33.40
2023-02-15T04:05:38.792Z,32.40
2023-02-15T04:06:38.614Z,33.00
2023-02-15T04:07:38.592Z,30.20
2023-02-15T04:08:38.598Z,29.00
2023-02-15T04:09:38.575Z,37.70
2023-02-15T04:10:38.733Z,30.30
2023-02-15T04:11:38.544Z,36.00
2023-02-15T04:12:38.540Z,28.70
2023-02-15T04:13:38.523Z,31.20
2023-02-15T04:14:38.510Z,34.20
2023-02-15T04:15:38.664Z,35.90
2023-02-15T04:16:38.852Z,29.00
2023-02-15T04:17:38.477Z,31.90
2023-02-15T04:18:38.469Z,34.50
2023-02-15T04:19:38.437Z,31.40
2023-02-15T04:20:38.426Z,32.60
2023-02-15T04:21:38.428Z,34.00
2023-02-15T04:22:38.405Z,34.40
2023-02-15T04:23:38.387Z,33.50
2023-02-15T04:24:38.375Z,34.90
2023-02-15T04:25:38.366Z,33.30
2023-02-15T04:26:38.527Z,32.60
2023-02-15T04:27:38.337Z,37.10
2023-02-15T04:28:38.323Z,34.10
2023-02-15T04:29:38.314Z,40.20
2023-02-15T04:30:38.308Z,32.40
2023-02-15T04:31:38.413Z,34.00
2023-02-15T04:32:38.453Z,29.80
2023-02-15T04:33:38.260Z,33.40
2023-02-15T04:34:38.251Z,30.60
2023-02-15T04:35:38.235Z,32.60
2023-02-15T04:36:38.219Z,34.30
2023-02-15T04:37:38.389Z,32.70
2023-02-15T04:38:38.199Z,28.00
2023-02-15T04:39:38.178Z,31.20
2023-02-15T04:40:38.185Z,37.30
2023-02-15T04:41:38.156Z,31.20
2023-02-15T04:42:38.156Z,34.60
2023-02-15T04:43:38.135Z,38.00
2023-02-15T04:44:38.121Z,32.20
2023-02-15T04:45:38.168Z,29.60
2023-02-15T04:46:38.106Z,35.80
2023-02-15T04:47:38.347Z,34.80
2023-02-15T04:48:38.394Z,37.00
2023-02-15T04:49:38.053Z,37.10
2023-02-15T04:50:38.044Z,31.90
2023-02-15T04:51:38.024Z,34.60
2023-02-15T04:52:38.023Z,34.50
2023-02-15T04:53:38.173Z,35.70
2023-02-15T04:54:38.004Z,33.70
2023-02-15T04:55:37.982Z,39.10
2023-02-15T04:56:37.972Z,37.10
2023-02-15T04:57:37.962Z,33.70
2023-02-15T04:58:38.132Z,34.40
2023-02-15T04:59:37.927Z,35.00
2023-02-15T05:00:37.939Z,33.40
2023-02-15T05:01:37.904Z,32.00
2023-02-15T05:02:37.902Z,32.80
2023-02-15T05:03:37.872Z,34.30
2023-02-15T05:04:38.134Z,34.30
2023-02-15T05:05:37.892Z,35.70
2023-02-15T05:06:37.846Z,36.00
2023-02-15T05:07:37.830Z,33.10
2023-02-15T05:08:37.838Z,36.50
2023-02-15T05:09:38.088Z,36.00
2023-02-15T05:10:37.796Z,33.00
2023-02-15T05:11:37.779Z,31.00
2023-02-15T05:12:37.768Z,34.00
2023-02-15T05:13:37.759Z,30.50
2023-02-15T05:14:37.751Z,37.30
2023-02-15T05:15:37.909Z,30.80
2023-02-15T05:16:37.790Z,33.70
2023-02-15T05:17:37.707Z,34.40
2023-02-15T05:18:37.698Z,37.20
2023-02-15T05:19:37.674Z,34.30
2023-02-15T05:20:37.837Z,34.10
2023-02-15T05:21:37.680Z,35.80
2023-02-15T05:22:37.647Z,34.60
2023-02-15T05:23:37.637Z,34.10
2023-02-15T05:24:37.618Z,35.90
2023-02-15T05:25:37.597Z,35.30
2023-02-15T05:26:37.741Z,37.30
2023-02-15T05:27:37.582Z,34.40
2023-02-15T05:28:37.581Z,39.30
2023-02-15T05:29:37.557Z,34.30
2023-02-15T05:30:37.748Z,40.30
2023-02-15T05:31:37.745Z,39.30
2023-02-15T05:32:37.803Z,37.70
2023-02-15T05:33:37.702Z,36.30
2023-02-15T05:34:37.497Z,35.20
2023-02-15T05:35:37.479Z,30.90
2023-02-15T05:36:37.473Z,43.10
2023-02-15T05:37:37.638Z,34.80
2023-02-15T05:38:37.459Z,38.60
2023-02-15T05:39:37.709Z,33.30
2023-02-15T05:40:37.428Z,34.90
2023-02-15T05:41:37.408Z,39.20
2023-02-15T05:42:37.397Z,32.70
2023-02-15T05:43:37.574Z,32.30
2023-02-15T05:44:37.370Z,40.00
2023-02-15T05:45:37.553Z,35.70
2023-02-15T05:46:37.345Z,34.70
2023-02-15T05:47:37.419Z,41.70
2023-02-15T05:48:37.325Z,40.00
2023-02-15T05:49:37.308Z,37.30
2023-02-15T05:50:37.495Z,41.80
2023-02-15T05:51:37.287Z,40.30
2023-02-15T05:52:37.282Z,36.90
2023-02-15T05:53:37.439Z,43.10
2023-02-15T05:54:37.245Z,44.00
2023-02-15T05:55:37.237Z,35.90
2023-02-15T05:56:37.230Z,39.40
2023-02-15T05:57:37.215Z,39.50
2023-02-15T05:58:37.217Z,34.90
2023-02-15T05:59:37.190Z,35.80
2023-02-15T06:00:38.185Z,37.00
2023-02-15T06:01:37.177Z,43.60
2023-02-15T06:02:37.173Z,41.20
2023-02-15T06:03:37.180Z,38.40
2023-02-15T06:04:37.126Z,41.00
2023-02-15T06:05:37.103Z,36.60
2023-02-15T06:06:37.109Z,41.20
2023-02-15T06:07:37.087Z,40.40
2023-02-15T06:08:37.076Z,40.80
2023-02-15T06:09:37.055Z,43.70
2023-02-15T06:10:37.053Z,40.30
2023-02-15T06:11:37.058Z,39.20
2023-02-15T06:12:37.024Z,38.30
2023-02-15T06:13:38.816Z,47.30
2023-02-15T06:14:36.995Z,44.50
2023-02-15T06:15:37.148Z,44.20
2023-02-15T06:16:36.970Z,41.30
2023-02-15T06:17:36.962Z,41.60
2023-02-15T06:18:36.974Z,39.40
2023-02-15T06:19:36.938Z,43.90
2023-02-15T06:20:36.922Z,44.80
2023-02-15T06:21:36.915Z,37.80
2023-02-15T06:22:36.891Z,36.40
2023-02-15T06:23:36.905Z,41.20
2023-02-15T06:24:36.870Z,37.80
2023-02-15T06:25:38.585Z,43.60
2023-02-15T06:26:36.907Z,38.70
2023-02-15T06:27:36.840Z,43.10
2023-02-15T06:28:36.830Z,37.00
2023-02-15T06:29:36.811Z,40.30
2023-02-15T06:30:36.788Z,47.10
2023-02-15T06:31:36.895Z,40.40
2023-02-15T06:32:36.765Z,43.50
2023-02-15T06:33:36.930Z,41.90
2023-02-15T06:34:36.756Z,41.20
2023-02-15T06:35:36.743Z,44.30
2023-02-15T06:36:36.714Z,47.90
2023-02-15T06:37:36.706Z,41.20
2023-02-15T06:38:36.865Z,43.00
2023-02-15T06:39:36.694Z,45.40
2023-02-15T06:40:36.665Z,42.00
2023-02-15T06:41:36.656Z,54.90
2023-02-15T06:42:36.643Z,44.50
2023-02-15T06:43:36.646Z,50.20
2023-02-15T06:44:36.894Z,39.80
2023-02-15T06:45:36.614Z,34.50
2023-02-15T06:46:36.647Z,41.10
2023-02-15T06:47:36.582Z,36.10
2023-02-15T06:48:36.563Z,49.40
2023-02-15T06:49:36.561Z,43.10
2023-02-15T06:50:36.722Z,39.10
2023-02-15T06:51:36.705Z,46.40
2023-02-15T06:52:36.511Z,40.40
2023-02-15T06:53:36.512Z,45.10
2023-02-15T06:54:36.496Z,41.80
2023-02-15T06:55:36.492Z,47.10
2023-02-15T06:56:36.633Z,41.70
2023-02-15T06:57:36.487Z,41.70
2023-02-15T06:58:36.456Z,37.00
2023-02-15T06:59:36.430Z,42.80
2023-02-15T07:00:36.439Z,36.50
2023-02-15T07:01:36.453Z,40.90
2023-02-15T07:02:36.422Z,36.90
2023-02-15T07:03:36.384Z,42.70
2023-02-15T07:04:36.398Z,42.40
2023-02-15T07:05:36.357Z,44.50
2023-02-15T07:06:36.514Z,50.20
2023-02-15T07:07:36.348Z,42.20
2023-02-15T07:08:36.489Z,40.40
2023-02-15T07:09:36.302Z,42.00
2023-02-15T07:10:36.282Z,39.40
2023-02-15T07:11:36.272Z,42.60
2023-02-15T07:12:36.262Z,44.10
2023-02-15T07:13:36.261Z,36.80
2023-02-15T07:14:36.241Z,38.80
2023-02-15T07:15:36.220Z,44.30
2023-02-15T07:16:36.220Z,45.20
2023-02-15T07:17:36.662Z,38.80
2023-02-15T07:18:36.198Z,39.70
2023-02-15T07:19:36.172Z,40.60
2023-02-15T07:20:37.482Z,47.40
2023-02-15T07:21:36.138Z,44.20
2023-02-15T07:22:36.136Z,47.40
2023-02-15T07:23:36.294Z,40.80
2023-02-15T07:24:36.118Z,42.10
2023-02-15T07:25:36.103Z,41.30
2023-02-15T07:26:36.084Z,40.60
2023-02-15T07:27:36.065Z,46.40
2023-02-15T07:28:36.076Z,49.40
2023-02-15T07:29:36.232Z,42.70
2023-02-15T07:30:36.085Z,44.90
2023-02-15T07:31:36.013Z,40.50
2023-02-15T07:32:36.072Z,47.00
2023-02-15T07:33:35.994Z,45.50
2023-02-15T07:34:36.164Z,45.50
2023-02-15T07:35:35.971Z,40.30
2023-02-15T07:36:35.964Z,39.00
2023-02-15T07:37:35.942Z,39.10
2023-02-15T07:38:35.952Z,43.70
2023-02-15T07:39:36.094Z,41.30
2023-02-15T07:40:35.912Z,40.90
2023-02-15T07:41:36.084Z,48.90
2023-02-15T07:42:35.883Z,50.50
2023-02-15T07:43:35.871Z,44.70
2023-02-15T07:44:35.850Z,50.40
2023-02-15T07:45:35.838Z,43.40
2023-02-15T07:46:36.056Z,44.60
2023-02-15T07:47:35.818Z,37.80
2023-02-15T07:48:35.830Z,40.20
2023-02-15T07:49:35.797Z,58.00
2023-02-15T07:50:35.796Z,48.10
2023-02-15T07:51:35.968Z,48.80
2023-02-15T07:52:35.761Z,50.20
2023-02-15T07:53:35.740Z,46.60
2023-02-15T07:54:35.771Z,46.30
2023-02-15T07:55:35.711Z,50.60
2023-02-15T07:56:37.121Z,41.90
2023-02-15T07:57:35.686Z,40.30
2023-02-15T07:58:35.684Z,42.20
2023-02-15T07:59:35.668Z,44.00
2023-02-15T08:00:35.656Z,40.70
2023-02-15T08:01:35.646Z,42.60
2023-02-15T08:02:35.715Z,45.40
2023-02-15T08:03:35.655Z,43.40
2023-02-15T08:04:35.606Z,50.20
2023-02-15T08:05:35.584Z,56.10
2023-02-15T08:06:35.640Z,60.80
2023-02-15T08:07:35.569Z,52.40
2023-02-15T08:08:35.554Z,58.60
2023-02-15T08:09:35.534Z,47.70
2023-02-15T08:10:35.536Z,51.00
2023-02-15T08:11:35.695Z,57.20
2023-02-15T08:12:35.505Z,51.00
2023-02-15T08:13:35.486Z,59.00
2023-02-15T08:14:35.489Z,43.90
2023-02-15T08:15:35.479Z,51.20
2023-02-15T08:16:35.491Z,47.20
2023-02-15T08:17:35.618Z,50.40
2023-02-15T08:18:35.438Z,37.60
2023-02-15T08:19:35.604Z,43.30
2023-02-15T08:20:35.408Z,41.00
2023-02-15T08:21:35.390Z,39.90
2023-02-15T08:22:35.386Z,43.70
2023-02-15T08:23:35.367Z,38.90
2023-02-15T08:24:35.367Z,32.60
2023-02-15T08:25:35.341Z,56.50
2023-02-15T08:26:35.333Z,39.00
2023-02-15T08:27:35.317Z,41.90
2023-02-15T08:28:35.489Z,46.40
2023-02-15T08:29:35.480Z,38.60
2023-02-15T08:30:36.426Z,37.80
2023-02-15T08:31:35.398Z,34.40
2023-02-15T08:32:35.258Z,35.00
2023-02-15T08:33:35.244Z,35.40
2023-02-15T08:34:35.424Z,36.20
2023-02-15T08:41:19.995Z,33.60
2023-02-15T08:42:20.043Z,33.60
2023-02-15T08:43:19.935Z,34.80
2023-02-15T08:44:19.951Z,31.40
2023-02-15T08:45:19.916Z,36.10
2023-02-15T08:46:19.924Z,40.00
2023-02-15T08:47:20.064Z,39.10
2023-02-15T08:48:20.069Z,31.30
2023-02-15T08:49:19.948Z,38.70
2023-02-15T08:50:19.852Z,36.30
2023-02-15T08:51:19.836Z,32.80
2023-02-15T08:52:19.836Z,33.40
2023-02-15T08:53:19.999Z,33.40
2023-02-15T08:54:19.831Z,28.90
2023-02-15T08:55:19.780Z,28.90
2023-02-15T08:56:19.781Z,31.50
2023-02-15T08:57:19.781Z,32.80
2023-02-15T08:58:19.930Z,32.00
2023-02-15T08:59:19.746Z,33.80
2023-02-15T09:00:19.729Z,34.90
2023-02-15T09:01:19.746Z,28.60
2023-02-15T09:02:19.738Z,32.40
2023-02-15T09:03:19.859Z,34.70
2023-02-15T09:04:19.868Z,33.00
2023-02-15T09:05:19.659Z,36.30
2023-02-15T09:06:19.647Z,35.70
2023-02-15T09:07:19.640Z,32.90
2023-02-15T09:08:19.640Z,33.10
2023-02-15T09:09:19.802Z,29.00
2023-02-15T09:10:19.616Z,29.70
2023-02-15T09:11:19.596Z,27.10
2023-02-15T09:12:19.602Z,31.90
2023-02-15T09:13:19.567Z,30.00
2023-02-15T09:14:19.574Z,33.10
2023-02-15T09:15:19.535Z,30.30
2023-02-15T09:16:19.564Z,31.90
2023-02-15T09:17:19.538Z,28.90
2023-02-15T09:18:19.495Z,29.20
2023-02-15T09:19:19.494Z,27.30
2023-02-15T09:20:19.656Z,30.00
2023-02-15T09:21:19.455Z,27.20
2023-02-15T09:22:19.452Z,28.00
2023-02-15T09:23:26.855Z,32.20
2023-02-15T09:24:20.425Z,29.00
2023-02-15T09:25:19.411Z,30.10
2023-02-15T09:26:19.427Z,28.20
2023-02-15T09:27:19.388Z,27.70
2023-02-15T09:28:19.370Z,27.00
2023-02-15T09:29:19.360Z,27.80
2023-02-15T09:30:19.427Z,29.90
2023-02-15T09:31:19.654Z,24.20
2023-02-15T09:32:19.366Z,26.30
2023-02-15T09:33:19.600Z,28.80
2023-02-15T09:34:19.299Z,28.80
2023-02-15T09:35:19.268Z,25.00
2023-02-15T09:36:19.277Z,26.20
2023-02-15T09:37:19.262Z,23.40
2023-02-15T09:38:19.425Z,25.60
2023-02-15T09:39:19.227Z,25.70
2023-02-15T09:40:19.216Z,29.30
2023-02-15T09:41:19.196Z,23.90
2023-02-15T09:42:19.185Z,22.70
2023-02-15T09:43:19.176Z,25.00
2023-02-15T09:44:19.174Z,24.20
2023-02-15T09:45:19.148Z,24.20
2023-02-15T09:46:19.200Z,22.60
2023-02-15T09:47:19.153Z,19.00
2023-02-15T09:48:19.128Z,28.20
2023-02-15T09:49:19.295Z,23.40
2023-02-15T09:50:19.104Z,23.60
2023-02-15T09:51:19.070Z,21.30
2023-02-15T09:52:19.063Z,26.00
2023-02-15T09:53:19.075Z,22.40
2023-02-15T09:54:19.054Z,25.40
2023-02-15T09:55:19.036Z,21.30
2023-02-15T09:56:20.755Z,23.50
2023-02-15T09:57:18.994Z,20.70
2023-02-15T09:58:19.009Z,23.80
2023-02-15T09:59:18.971Z,23.20
2023-02-15T10:00:19.140Z,24.40
2023-02-15T10:01:18.973Z,22.90
2023-02-15T10:02:18.937Z,24.10
2023-02-15T10:03:18.934Z,22.50
2023-02-15T10:04:18.997Z,24.50
2023-02-15T10:05:18.894Z,19.70
2023-02-15T10:06:18.884Z,23.10
2023-02-15T10:07:19.036Z,21.70
2023-02-15T10:08:18.856Z,19.30
2023-02-15T10:09:18.843Z,20.60
2023-02-15T10:10:18.845Z,25.60
2023-02-15T10:11:18.985Z,25.70
2023-02-15T10:12:18.812Z,18.80
2023-02-15T10:13:18.781Z,19.00
2023-02-15T10:14:19.606Z,20.50
2023-02-15T10:15:18.764Z,20.00
2023-02-15T10:16:19.016Z,20.60
2023-02-15T10:17:18.756Z,16.10
2023-02-15T10:18:18.725Z,23.80
2023-02-15T10:19:18.718Z,23.90
2023-02-15T10:20:18.713Z,18.20
2023-02-15T10:21:18.702Z,20.90
2023-02-15T10:22:18.674Z,19.30
2023-02-15T10:23:18.657Z,19.70
2023-02-15T10:24:18.654Z,16.80
2023-02-15T10:25:18.644Z,20.50
2023-02-15T10:26:18.802Z,19.10
2023-02-15T10:27:18.860Z,18.60
2023-02-15T10:28:18.592Z,21.90
2023-02-15T10:29:18.582Z,22.10
2023-02-15T10:30:18.638Z,20.80
2023-02-15T10:31:18.622Z,20.00
2023-02-15T10:32:18.606Z,20.70
2023-02-15T10:33:18.542Z,20.20
2023-02-15T10:34:18.516Z,17.90
2023-02-15T10:35:18.498Z,20.70
2023-02-15T10:36:18.489Z,16.90
2023-02-15T10:37:18.502Z,21.50
2023-02-15T10:38:18.470Z,20.20
2023-02-15T10:39:18.450Z,20.00
2023-02-15T10:40:18.438Z,18.90
2023-02-15T10:41:18.429Z,18.20
2023-02-15T10:42:18.428Z,19.60
2023-02-15T10:43:18.390Z,22.70
2023-02-15T10:44:18.571Z,17.10
2023-02-15T10:45:18.368Z,16.20
2023-02-15T10:46:18.413Z,16.20
2023-02-15T10:47:18.348Z,16.00
2023-02-15T10:48:18.508Z,19.20
2023-02-15T10:49:18.307Z,21.70
2023-02-15T10:50:18.348Z,18.10
2023-02-15T10:51:18.287Z,19.30
2023-02-15T10:52:18.297Z,17.90
2023-02-15T10:53:18.266Z,16.30
2023-02-15T10:54:18.256Z,18.80
2023-02-15T10:55:18.430Z,20.30
2023-02-15T10:56:18.226Z,20.10
2023-02-15T10:57:18.220Z,19.20
2023-02-15T10:58:18.206Z,16.40
2023-02-15T10:59:18.187Z,17.20
2023-02-15T11:00:18.197Z,18.10
2023-02-15T11:01:18.193Z,18.60
2023-02-15T11:02:18.154Z,18.00
2023-02-15T11:03:18.135Z,17.00
2023-02-15T11:04:18.143Z,19.50
2023-02-15T11:05:18.714Z,18.40
2023-02-15T11:06:18.217Z,18.90
2023-02-15T11:07:18.165Z,20.90
2023-02-15T11:08:18.143Z,17.10
2023-02-15T11:09:18.115Z,17.60
2023-02-15T11:10:18.518Z,23.40
2023-02-15T11:11:18.065Z,18.20
2023-02-15T11:12:18.195Z,18.20
2023-02-15T11:13:18.005Z,22.60
2023-02-15T11:14:18.002Z,22.10
2023-02-15T11:15:17.991Z,18.40
2023-02-15T11:16:18.997Z,20.40
2023-02-15T11:17:17.980Z,20.70
2023-02-15T11:18:17.947Z,19.50
2023-02-15T11:19:17.935Z,18.40
2023-02-15T11:20:17.923Z,19.60
2023-02-15T11:21:17.904Z,16.20
2023-02-15T11:22:18.234Z,20.10
2023-02-15T11:23:18.054Z,19.40
2023-02-15T11:24:17.881Z,16.70
2023-02-15T11:25:17.873Z,19.90
2023-02-15T11:26:17.851Z,18.40
2023-02-15T11:27:17.879Z,18.90
2023-02-15T11:28:17.836Z,18.60
2023-02-15T11:29:17.803Z,13.80
2023-02-15T11:30:18.042Z,16.00
2023-02-15T11:31:17.918Z,15.60
2023-02-15T11:32:17.928Z,15.90
2023-02-15T11:33:17.766Z,18.80
2023-02-15T11:34:17.752Z,15.10
2023-02-15T11:35:17.912Z,15.40
2023-02-15T11:36:17.722Z,17.70
2023-02-15T11:37:17.703Z,15.00
2023-02-15T11:38:17.702Z,15.40
2023-02-15T11:39:17.684Z,15.50
2023-02-15T11:40:17.884Z,20.50
2023-02-15T11:41:17.660Z,22.00
2023-02-15T11:42:17.649Z,17.60
2023-02-15T11:43:17.629Z,18.70
2023-02-15T11:44:17.608Z,16.30
2023-02-15T11:45:17.628Z,18.70
2023-02-15T11:46:17.643Z,20.70
2023-02-15T11:47:17.587Z,14.90
2023-02-15T11:48:17.565Z,19.70
2023-02-15T11:49:17.557Z,15.00
2023-02-15T11:50:17.634Z,14.70
2023-02-15T11:51:17.667Z,17.40
2023-02-15T11:52:17.529Z,17.90
2023-02-15T11:53:17.497Z,13.90
2023-02-15T11:54:17.476Z,13.70
2023-02-15T11:55:17.484Z,16.20
2023-02-15T11:56:17.479Z,17.50
2023-02-15T11:57:17.457Z,17.50
2023-02-15T11:58:17.434Z,13.60
2023-02-15T11:59:17.424Z,12.30
2023-02-15T12:00:17.444Z,17.60
2023-02-15T12:01:17.394Z,15.70
2023-02-15T12:02:17.560Z,15.50
2023-02-15T12:03:17.545Z,16.30
2023-02-15T12:04:17.390Z,18.40
2023-02-15T12:05:17.338Z,16.00
2023-02-15T12:06:17.318Z,18.50
2023-02-15T12:07:17.307Z,15.70
2023-02-15T12:08:17.304Z,14.30
2023-02-15T12:09:17.299Z,14.60
2023-02-15T12:10:17.409Z,15.50
2023-02-15T12:11:17.264Z,14.90
2023-02-15T12:12:17.250Z,14.20
2023-02-15T12:13:17.224Z,15.20
2023-02-15T12:14:17.417Z,13.50
2023-02-15T12:15:17.205Z,14.50
2023-02-15T12:16:17.272Z,11.60
2023-02-15T12:17:17.176Z,16.30
2023-02-15T12:18:17.478Z,12.70
2023-02-15T12:19:17.153Z,10.70
2023-02-15T12:20:17.257Z,13.70
2023-02-15T12:21:17.308Z,10.30
2023-02-15T12:22:17.104Z,13.00
2023-02-15T12:23:17.287Z,14.80
2023-02-15T12:24:17.075Z,12.40
2023-02-15T12:25:17.084Z,13.00
2023-02-15T12:26:17.062Z,12.90
2023-02-15T12:27:17.049Z,13.10
2023-02-15T12:28:17.202Z,12.50
2023-02-15T12:29:17.013Z,13.60
2023-02-15T12:30:17.064Z,13.50
2023-02-15T12:31:17.117Z,16.50
2023-02-15T12:32:16.971Z,10.70
2023-02-15T12:33:17.171Z,13.70
2023-02-15T12:34:17.157Z,13.30
2023-02-15T12:35:16.933Z,12.30
2023-02-15T12:36:16.914Z,15.20
2023-02-15T12:37:16.915Z,12.10
2023-02-15T12:38:16.902Z,10.80
2023-02-15T12:39:17.078Z,12.00
2023-02-15T12:40:16.866Z,16.00
2023-02-15T12:41:16.869Z,15.70
2023-02-15T12:42:16.834Z,19.50
2023-02-15T12:43:16.822Z,12.00
2023-02-15T12:44:17.009Z,15.70
2023-02-15T12:45:19.227Z,12.20
2023-02-15T12:46:16.820Z,13.70
2023-02-15T12:47:16.800Z,13.70
2023-02-15T12:48:16.781Z,12.50
2023-02-15T12:49:20.448Z,14.30
2023-02-15T12:50:16.951Z,12.90
2023-02-15T12:51:16.724Z,14.90
2023-02-15T12:52:16.726Z,16.50
2023-02-15T12:53:16.694Z,12.30
2023-02-15T12:54:16.800Z,14.20
2023-02-15T12:55:16.851Z,21.10
2023-02-15T12:56:16.662Z,12.00
2023-02-15T12:57:16.659Z,15.80
2023-02-15T12:58:16.645Z,14.60